Time;durP1;ratioP1;P1;durP2;ratioP2;P2;SDS_P1;SDS_P2;PMS_P1;PMS_P2;Temp;Humidity;BMP_temperature;BMP_pressure;BME280_temperature;BME280_humidity;BME280_pressure;Samples;Min_cycle;Max_cycle;Signal;HPM_P1;HPM_P2
2022/04/12 00:00:06;;;;;;;4.37;2.47;;;;;;;5.62;47.92;101913.53;2570953;23;20595;-64
2022/04/12 00:01:07;;;;;;;5.82;3.00;;;;;;;6.10;48.29;102005.53;2570740;23;20530;-64
2022/04/12 00:02:08;;;;;;;3.67;2.53;;;;;;;6.08;47.93;101994.88;2570941;23;20154;-64
2022/04/12 00:03:10;;;;;;;5.93;3.00;;;;;;;6.07;48.53;102003.50;2570774;23;20151;-64
2022/04/12 00:04:10;;;;;;;5.65;2.65;;;;;;;5.24;48.52;101879.88;2570970;23;20208;-64
2022/04/12 00:05:12;;;;;;;4.53;2.63;;;;;;;6.04;48.62;101993.22;2570979;23;20191;-64
2022/04/12 00:06:13;;;;;;;4.72;2.40;;;;;;;5.79;48.55;101961.75;2570745;23;20163;-64
2022/04/12 00:07:15;;;;;;;5.20;2.43;;;;;;;5.98;48.33;102000.22;2570633;23;20159;-64
2022/04/12 00:08:16;;;;;;;4.80;2.83;;;;;;;5.95;49.11;101999.00;2570961;23;20231;-64
2022/04/12 00:09:16;;;;;;;6.70;2.60;;;;;;;5.78;49.21;101980.19;2570843;23;20152;-64
2022/04/12 00:10:17;;;;;;;5.03;2.83;;;;;;;5.89;48.82;102000.47;2570906;23;20152;-64
2022/04/12 00:11:18;;;;;;;3.63;2.40;;;;;;;5.85;49.36;101990.56;2570720;23;20147;-64
2022/04/12 00:12:18;;;;;;;3.53;2.73;;;;;;;5.25;49.16;101900.69;2571037;23;20161;-64
2022/04/12 00:13:19;;;;;;;5.17;2.60;;;;;;;5.84;49.35;101997.25;2570655;23;20597;-64
2022/04/12 00:14:20;;;;;;;4.20;2.70;;;;;;;5.80;48.92;101985.38;2570910;23;20172;-65
2022/04/12 00:15:20;;;;;;;5.10;2.53;;;;;;;4.84;48.98;101857.53;2570694;23;20209;-64
2022/04/12 00:16:21;;;;;;;5.10;2.60;;;;;;;5.81;50.25;101990.50;2570921;23;20527;-64
2022/04/12 00:19:59;;;;;;;4.03;2.58;;;;;;;5.76;49.72;101995.47;2570840;23;20142;-64
2022/04/12 00:21:00;;;;;;;5.10;2.37;;;;;;;5.72;49.54;102000.13;2570773;23;20195;-64
2022/04/12 00:22:01;;;;;;;4.05;2.20;;;;;;;5.59;49.14;101976.72;2570639;23;20161;-64
2022/04/12 00:23:01;;;;;;;3.43;2.00;;;;;;;5.72;48.70;101997.38;2570710;23;20162;-64
2022/04/12 00:24:06;;;;;;;7.47;2.63;;;;;;;5.47;49.21;101969.44;2570640;23;20597;-64
2022/04/12 00:25:09;;;;;;;5.47;2.72;;;;;;;4.96;48.94;101873.84;2570765;23;20164;-64
2022/04/12 00:26:11;;;;;;;11.02;2.92;;;;;;;5.64;49.20;101973.66;2570749;23;20156;-64
2022/04/12 00:27:12;;;;;;;8.18;3.30;;;;;;;5.53;49.33;101978.97;2570501;23;20209;-64
2022/04/12 00:28:14;;;;;;;5.75;2.65;;;;;;;5.70;48.98;101978.47;2570766;23;20153;-64
2022/04/12 00:29:14;;;;;;;8.85;3.65;;;;;;;5.76;49.88;101988.03;2570879;23;20221;-64
2022/04/12 00:30:16;;;;;;;6.03;2.63;;;;;;;5.65;50.15;101976.03;2570840;23;20622;-64
2022/04/12 00:31:16;;;;;;;5.55;2.58;;;;;;;5.75;49.30;101982.91;2570616;23;20147;-64
2022/04/12 00:32:17;;;;;;;3.77;2.10;;;;;;;5.79;49.32;101992.00;2570665;23;20157;-64
2022/04/12 00:33:17;;;;;;;4.50;2.83;;;;;;;5.81;49.15;101992.47;2570653;23;20158;-64
2022/04/12 00:34:18;;;;;;;4.23;2.30;;;;;;;5.80;49.09;101993.63;2557536;23;20284;-65
2022/04/12 00:35:20;;;;;;;5.60;2.47;;;;;;;5.84;48.91;101997.25;2557694;23;20151;-64
2022/04/12 00:36:21;;;;;;;3.65;2.45;;;;;;;5.86;49.21;101992.16;2570798;23;20284;-64
2022/04/12 00:37:21;;;;;;;3.67;2.30;;;;;;;5.84;48.96;101981.50;2570571;23;20212;-64
2022/04/12 00:38:23;;;;;;;5.30;2.40;;;;;;;5.87;48.96;101985.47;2570687;23;20153;-65
2022/04/12 00:39:24;;;;;;;5.22;2.83;;;;;;;5.86;49.58;101984.72;2570807;23;20592;-65
2022/04/12 00:40:26;;;;;;;5.03;2.70;;;;;;;5.89;49.14;101980.44;2570811;23;20155;-64
2022/04/12 00:41:35;;;;;;;4.55;2.20;;;;;;;5.89;49.57;101983.94;2570508;23;20183;-64
2022/04/12 00:42:36;;;;;;;4.70;2.35;;;;;;;5.62;48.97;101945.72;2571008;23;20139;-64
2022/04/12 00:43:38;;;;;;;4.68;2.38;;;;;;;5.82;48.92;101989.34;2570713;23;20155;-64
2022/04/12 00:44:39;;;;;;;5.15;2.25;;;;;;;5.81;49.64;101982.25;2570848;23;20235;-64
2022/04/12 00:45:39;;;;;;;3.13;2.00;;;;;;;5.64;49.32;101952.44;2570464;23;20248;-64
2022/04/12 00:46:40;;;;;;;4.43;2.30;;;;;;;5.77;48.95;101973.13;2570507;23;20157;-64
2022/04/12 00:49:00;;;;;;;4.50;2.33;;;;;;;5.78;49.16;101982.94;2570680;23;20142;-64
2022/04/12 00:50:00;;;;;;;4.43;2.27;;;;;;;5.18;49.80;101889.59;2570635;23;20655;-65
2022/04/12 00:51:01;;;;;;;4.57;2.60;;;;;;;5.80;49.72;101982.63;2570560;23;20305;-65
2022/04/12 00:52:04;;;;;;;5.80;2.17;;;;;;;5.76;49.74;101979.78;2570583;23;20484;-64
2022/04/12 00:53:07;;;;;;;3.97;2.20;;;;;;;5.77;49.92;101975.06;2570615;23;20150;-64
2022/04/12 00:54:09;;;;;;;4.03;2.03;;;;;;;5.70;50.46;101970.22;2570546;23;20593;-64
2022/04/12 00:55:10;;;;;;;4.50;2.33;;;;;;;5.40;49.66;101919.84;2570613;23;20156;-64
2022/04/12 00:56:11;;;;;;;3.72;2.10;;;;;;;5.70;49.90;101994.97;2570725;23;20184;-64
2022/04/12 00:57:12;;;;;;;6.87;2.20;;;;;;;5.77;49.97;101972.31;2570427;23;20667;-64
2022/04/12 00:58:12;;;;;;;4.60;2.00;;;;;;;5.76;49.50;101974.28;2570596;23;20390;-64
2022/04/12 00:59:13;;;;;;;4.50;2.10;;;;;;;5.78;50.48;101985.69;2570629;23;20163;-64
2022/04/12 01:00:17;;;;;;;4.67;2.37;;;;;;;5.78;50.17;101982.16;2570655;23;20155;-64
2022/04/12 01:01:18;;;;;;;4.60;2.10;;;;;;;5.78;50.28;101979.41;2570591;23;20537;-64
2022/04/12 01:02:19;;;;;;;5.10;2.53;;;;;;;5.80;49.96;101985.38;2570776;23;20156;-64
2022/04/12 01:03:19;;;;;;;4.13;2.40;;;;;;;5.78;49.83;101982.94;2570485;23;20495;-64
2022/04/12 01:04:20;;;;;;;3.60;2.30;;;;;;;5.80;50.01;101985.38;2570786;23;20238;-64
2022/04/12 01:05:20;;;;;;;5.50;2.30;;;;;;;5.82;49.72;101977.53;2570549;23;20156;-64
2022/04/12 01:06:21;;;;;;;4.87;2.10;;;;;;;5.83;49.20;101985.44;2570623;23;20152;-64
2022/04/12 01:07:22;;;;;;;4.90;2.47;;;;;;;5.84;49.29;101984.25;2570392;23;20617;-64
2022/04/12 01:08:23;;;;;;;4.63;2.70;;;;;;;5.87;49.38;101979.97;2570692;23;20498;-64
2022/04/12 01:09:27;;;;;;;5.17;2.40;;;;;;;5.85;48.99;101982.31;2570643;23;20209;-64
2022/04/12 01:10:28;;;;;;;4.82;2.30;;;;;;;5.75;50.18;101974.66;2570723;23;20229;-64
2022/04/12 01:11:29;;;;;;;4.50;2.35;;;;;;;5.84;50.14;101980.72;2570396;23;20152;-64
2022/04/12 01:12:30;;;;;;;4.47;2.43;;;;;;;5.83;49.90;101979.94;2570583;23;20153;-64
2022/04/12 01:13:31;;;;;;;4.53;2.08;;;;;;;5.83;49.99;101974.44;2570435;23;20182;-64
2022/04/12 01:14:31;;;;;;;3.87;2.40;;;;;;;5.74;49.62;101981.31;2570554;23;20165;-64
2022/04/12 01:15:32;;;;;;;5.13;2.10;;;;;;;5.81;50.54;101982.25;2570465;23;20616;-64
2022/04/12 01:16:33;;;;;;;4.43;2.40;;;;;;;5.83;50.20;101985.44;2557491;23;20179;-65
2022/04/12 01:17:34;;;;;;;5.32;2.35;;;;;;;5.85;50.24;101985.84;2557187;23;20159;-64
2022/04/12 01:18:34;;;;;;;5.20;2.50;;;;;;;4.60;50.15;101784.53;2570696;23;20147;-64
2022/04/12 01:19:35;;;;;;;4.47;2.33;;;;;;;5.87;49.48;101979.97;2570466;23;20226;-65
2022/04/12 01:20:36;;;;;;;4.03;2.17;;;;;;;5.65;50.30;101945.78;2570512;23;20147;-64
2022/04/12 01:21:50;;;;;;;5.73;2.30;;;;;;;5.93;49.40;101975.75;2570367;23;20494;-64
2022/04/12 01:23:15;;;;;;;8.10;2.50;;;;;;;5.04;48.88;101839.88;2570604;23;20461;-64
2022/04/12 01:24:16;;;;;;;6.75;2.30;;;;;;;5.96;49.18;101975.03;2569867;23;20160;-65
2022/04/12 01:25:18;;;;;;;3.87;2.17;;;;;;;5.97;49.06;101979.38;2557288;23;20165;-65
2022/04/12 01:26:19;;;;;;;4.85;2.17;;;;;;;5.98;48.77;101970.75;2557715;23;20602;-65
2022/04/12 01:27:20;;;;;;;4.17;2.40;;;;;;;5.97;49.61;101974.66;2570360;23;20474;-64
2022/04/12 01:28:20;;;;;;;3.70;2.57;;;;;;;5.98;49.43;101972.69;2570472;23;20497;-64
2022/04/12 01:29:23;;;;;;;4.67;2.50;;;;;;;5.97;48.99;101971.91;2570474;23;20159;-65
2022/04/12 01:30:23;;;;;;;6.28;2.72;;;;;;;5.99;49.04;101966.81;2570515;23;20149;-64
2022/04/12 01:31:27;;;;;;;5.13;2.60;;;;;;;6.02;48.96;101976.28;2570313;23;20150;-64
2022/04/12 01:32:27;;;;;;;4.05;2.28;;;;;;;5.95;48.63;101968.72;2570501;23;20159;-64
2022/04/12 01:33:28;;;;;;;5.10;2.20;;;;;;;6.02;48.65;101973.56;2570245;23;20151;-65
2022/04/12 01:34:28;;;;;;;7.40;2.53;;;;;;;6.03;49.22;101977.88;2570576;23;20495;-65
2022/04/12 01:35:29;;;;;;;4.70;2.60;;;;;;;6.01;48.99;101972.75;2570308;23;20175;-64
2022/04/12 01:36:30;;;;;;;6.30;2.57;;;;;;;6.02;48.95;101970.78;2570633;23;20258;-64
2022/04/12 01:37:30;;;;;;;4.37;2.27;;;;;;;6.01;49.22;101975.50;2570209;23;20515;-64
2022/04/12 01:38:31;;;;;;;5.40;2.90;;;;;;;5.18;48.70;101837.38;2570624;23;20147;-64
2022/04/12 01:39:32;;;;;;;7.60;3.50;;;;;;;5.91;49.35;101964.34;2570412;23;20589;-64
2022/04/12 01:40:33;;;;;;;23.90;4.00;;;;;;;5.65;48.92;101948.53;2570535;23;20498;-64
2022/04/12 01:41:33;;;;;;;23.17;3.73;;;;;;;5.99;48.54;101974.28;2570283;23;20395;-65
2022/04/12 01:42:34;;;;;;;18.50;3.30;;;;;;;5.99;48.94;101975.09;2570334;23;20490;-64
2022/04/12 01:43:35;;;;;;;23.00;4.53;;;;;;;5.98;48.55;101978.19;2570402;23;20154;-65
2022/04/12 01:44:35;;;;;;;20.10;4.30;;;;;;;5.97;49.13;101977.41;2570521;23;20148;-64
2022/04/12 01:45:36;;;;;;;14.70;3.60;;;;;;;5.96;48.82;101967.56;2570196;23;20272;-65
2022/04/12 01:46:36;;;;;;;18.67;4.63;;;;;;;5.94;49.36;101964.38;2570293;23;20496;-64
2022/04/12 01:47:37;;;;;;;16.57;4.53;;;;;;;5.95;49.24;101970.69;2570253;23;20148;-64
2022/04/12 01:48:38;;;;;;;9.93;3.53;;;;;;;5.94;49.08;101969.09;2570401;23;20257;-65
2022/04/12 01:49:39;;;;;;;11.00;3.30;;;;;;;5.95;49.21;101965.19;2570520;23;20147;-64
2022/04/12 01:50:39;;;;;;;11.90;3.73;;;;;;;5.95;49.01;101959.69;2570576;23;20621;-65
2022/04/12 01:51:40;;;;;;;10.10;3.33;;;;;;;5.95;49.50;101960.47;2570410;23;20157;-65
2022/04/12 01:52:41;;;;;;;9.83;3.30;;;;;;;5.94;49.21;101958.09;2570574;23;20537;-65
2022/04/12 01:53:42;;;;;;;8.60;3.03;;;;;;;5.69;49.38;101929.34;2570389;23;20175;-65
2022/04/12 01:54:43;;;;;;;12.55;3.42;;;;;;;5.95;49.57;101962.44;2570312;23;20151;-65
2022/04/12 01:55:44;;;;;;;11.20;3.53;;;;;;;5.41;49.44;101876.63;2570343;23;20229;-64
2022/04/12 01:56:44;;;;;;;8.17;3.57;;;;;;;5.92;49.67;101954.91;2569911;23;20500;-64
2022/04/12 01:57:45;;;;;;;10.87;3.43;;;;;;;5.94;48.96;101958.09;2570191;23;20167;-65
2022/04/12 01:58:46;;;;;;;9.50;3.43;;;;;;;5.95;49.67;101968.72;2570410;23;20145;-65
2022/04/12 01:59:46;;;;;;;10.67;3.73;;;;;;;5.96;49.42;101969.53;2570273;23;20210;-64
2022/04/12 02:00:47;;;;;;;7.40;3.00;;;;;;;5.94;49.14;101961.63;2570244;23;20597;-65
2022/04/12 02:01:47;;;;;;;8.90;3.30;;;;;;;5.83;49.01;101957.91;2570307;23;20649;-64
2022/04/12 02:02:48;;;;;;;9.83;3.60;;;;;;;5.92;49.20;101965.91;2570359;23;20149;-65
2022/04/12 02:03:48;;;;;;;11.30;3.57;;;;;;;5.92;49.62;101968.66;2570138;23;20610;-64
2022/04/12 02:04:49;;;;;;;6.60;3.00;;;;;;;5.91;49.44;101964.34;2570449;23;20152;-64
2022/04/12 02:05:49;;;;;;;7.57;3.00;;;;;;;5.90;49.50;101965.50;2570223;23;20171;-65
2022/04/12 02:06:50;;;;;;;6.63;3.23;;;;;;;5.89;48.89;101964.69;2570326;23;20160;-64
2022/04/12 02:07:50;;;;;;;6.07;3.37;;;;;;;4.50;49.04;101741.19;2570406;23;20157;-65
2022/04/12 02:08:51;;;;;;;5.47;2.87;;;;;;;5.88;49.39;101954.84;2570100;23;20151;-65
2022/04/12 02:09:52;;;;;;;8.13;2.80;;;;;;;5.89;49.76;101966.66;2570326;23;20155;-65
2022/04/12 02:10:52;;;;;;;6.47;2.90;;;;;;;5.07;49.26;101831.69;2570344;23;20154;-65
2022/04/12 02:11:56;;;;;;;5.43;3.20;;;;;;;5.90;49.83;101965.50;2556874;23;20159;-65
2022/04/12 02:12:57;;;;;;;6.40;3.45;;;;;;;5.89;50.14;101969.41;2557771;23;20165;-64
2022/04/12 02:13:57;;;;;;;6.70;2.90;;;;;;;5.88;49.70;101968.63;2570261;23;20596;-64
2022/04/12 02:14:59;;;;;;;7.10;3.40;;;;;;;5.88;50.10;101974.13;2570202;23;20150;-64
2022/04/12 02:15:59;;;;;;;8.60;2.97;;;;;;;5.90;49.45;101962.75;2570394;23;20162;-65
2022/04/12 02:17:00;;;;;;;7.17;3.13;;;;;;;5.41;49.64;101896.69;2570192;23;20167;-65
2022/04/12 02:18:01;;;;;;;6.97;3.03;;;;;;;5.88;50.26;101963.13;2570432;23;20153;-64
2022/04/12 02:19:01;;;;;;;11.53;3.17;;;;;;;4.98;49.94;101822.88;2570335;23;20606;-64
2022/04/12 02:20:02;;;;;;;12.10;3.60;;;;;;;5.86;50.41;101964.63;2557069;23;20221;-64
2022/04/12 02:21:03;;;;;;;11.67;3.50;;;;;;;5.60;50.19;101926.84;2556820;23;20178;-65
2022/04/12 02:22:05;;;;;;;9.37;3.47;;;;;;;5.27;50.15;101870.88;2570383;23;20161;-64
2022/04/12 02:23:06;;;;;;;13.35;3.80;;;;;;;5.84;50.52;101962.25;2570319;23;20156;-64
2022/04/12 02:24:07;;;;;;;7.23;3.33;;;;;;;5.83;50.57;101959.88;2570034;23;20151;-64
2022/04/12 02:25:08;;;;;;;20.02;5.50;;;;;;;5.84;50.49;101958.72;2570278;23;20182;-64
2022/04/12 02:26:08;;;;;;;11.20;4.15;;;;;;;5.83;50.13;101957.09;2570069;23;20483;-64
2022/04/12 02:27:09;;;;;;;8.33;4.07;;;;;;;5.76;49.86;101949.53;2556833;23;20311;-64
2022/04/12 02:28:09;;;;;;;20.03;4.50;;;;;;;5.75;50.11;101945.16;2557145;23;20156;-64
2022/04/12 02:29:13;;;;;;;9.23;3.53;;;;;;;5.36;49.58;101918.16;2570408;23;20181;-65
2022/04/12 02:30:13;;;;;;;20.35;4.78;;;;;;;5.77;49.67;101945.59;2570344;23;20158;-64
2022/04/12 02:31:14;;;;;;;22.00;4.93;;;;;;;5.84;50.36;101953.22;2570105;23;20153;-65
2022/04/12 02:32:15;;;;;;;13.97;4.37;;;;;;;5.84;50.18;101961.47;2570259;23;20604;-65
2022/04/12 02:33:15;;;;;;;17.90;5.40;;;;;;;5.82;50.10;101950.84;2570021;23;20202;-64
2022/04/12 02:34:16;;;;;;;9.40;4.53;;;;;;;5.83;49.39;101952.41;2570154;23;20495;-65
2022/04/12 02:35:16;;;;;;;13.70;4.73;;;;;;;5.80;49.45;101947.63;2570246;23;20155;-64
2022/04/12 02:36:17;;;;;;;8.00;4.37;;;;;;;5.82;49.39;101952.78;2570550;23;20181;-64
2022/04/12 02:37:17;;;;;;;9.00;4.10;;;;;;;5.81;50.04;101949.25;2570129;23;20157;-65
2022/04/12 02:38:18;;;;;;;11.57;4.43;;;;;;;5.78;49.38;101952.69;2570216;23;20660;-64
2022/04/12 02:39:18;;;;;;;6.17;3.47;;;;;;;5.73;49.89;101936.50;2570311;23;20615;-65
2022/04/12 02:40:19;;;;;;;19.90;5.50;;;;;;;5.81;49.79;101948.44;2570225;23;20542;-64
2022/04/12 02:41:20;;;;;;;8.55;4.00;;;;;;;5.82;50.33;101944.53;2570007;23;20183;-65
2022/04/12 02:42:20;;;;;;;8.17;4.10;;;;;;;5.81;50.00;101943.75;2570326;23;20183;-64
2022/04/12 02:43:21;;;;;;;26.33;4.47;;;;;;;5.80;50.30;101944.88;2556929;23;20161;-64
2022/04/12 02:44:21;;;;;;;21.93;5.10;;;;;;;5.80;49.94;101942.13;2557180;23;20204;-64
2022/04/12 02:45:22;;;;;;;11.43;3.77;;;;;;;5.30;49.81;101867.41;2570053;23;20654;-64
2022/04/12 02:46:22;;;;;;;8.30;3.80;;;;;;;5.80;49.83;101949.59;2570139;23;20181;-64
2022/04/12 02:47:25;;;;;;;14.83;4.47;;;;;;;5.81;50.13;101962.19;2569864;23;20516;-64
2022/04/12 02:48:25;;;;;;;10.73;3.90;;;;;;;5.82;49.95;101948.09;2570331;23;20160;-64
2022/04/12 02:49:26;;;;;;;14.97;4.77;;;;;;;5.81;50.16;101946.50;2570108;23;20152;-65
2022/04/12 02:50:27;;;;;;;6.63;3.60;;;;;;;5.83;49.71;101946.09;2570383;23;20182;-64
2022/04/12 02:51:27;;;;;;;13.05;4.38;;;;;;;5.77;50.02;101950.31;2556819;23;20516;-64
2022/04/12 02:52:28;;;;;;;7.13;3.47;;;;;;;5.36;49.89;101891.47;2557120;23;20154;-64
2022/04/12 02:53:29;;;;;;;8.90;3.97;;;;;;;5.75;49.53;101942.41;2569974;23;20206;-64
2022/04/12 02:54:29;;;;;;;21.57;4.83;;;;;;;4.84;50.57;101805.34;2570286;23;20233;-64
2022/04/12 02:55:30;;;;;;;14.17;4.20;;;;;;;5.75;50.84;101950.66;2570149;23;20707;-64
2022/04/12 02:56:30;;;;;;;13.43;4.20;;;;;;;5.75;51.48;101952.63;2570256;23;20165;-64
2022/04/12 02:57:31;;;;;;;16.90;4.50;;;;;;;5.73;52.18;101958.50;2570066;23;20489;-65
2022/04/12 02:58:31;;;;;;;12.53;3.83;;;;;;;5.72;52.21;101956.91;2570211;23;20148;-64
2022/04/12 02:59:32;;;;;;;10.93;3.40;;;;;;;5.72;52.41;101956.91;2570164;23;20162;-64
2022/04/12 03:00:32;;;;;;;13.10;4.53;;;;;;;5.70;52.15;101952.94;2570252;23;20612;-64
2022/04/12 03:01:34;;;;;;;11.60;4.27;;;;;;;5.67;52.36;101959.97;2569926;23;20538;-64
2022/04/12 03:02:34;;;;;;;14.15;4.15;;;;;;;5.65;51.98;101956.00;2570164;23;20144;-64
2022/04/12 03:03:35;;;;;;;10.23;3.93;;;;;;;5.63;52.19;101950.88;2570167;23;20286;-64
2022/04/12 03:04:35;;;;;;;9.50;3.97;;;;;;;5.63;51.89;101955.56;2570214;23;20589;-64
2022/04/12 03:05:36;;;;;;;6.77;3.73;;;;;;;5.63;51.47;101958.31;2570236;23;20150;-64
2022/04/12 03:06:37;;;;;;;8.43;3.60;;;;;;;5.61;51.83;101952.38;2569889;23;20215;-65
2022/04/12 03:07:37;;;;;;;8.23;4.07;;;;;;;5.60;51.83;101950.81;2570123;23;20154;-65
2022/04/12 03:08:38;;;;;;;8.90;4.00;;;;;;;5.58;52.56;101947.59;2570030;23;20156;-65
2022/04/12 03:09:38;;;;;;;10.63;4.00;;;;;;;5.59;51.17;101949.22;2570340;23;20145;-65
2022/04/12 03:10:39;;;;;;;8.53;4.03;;;;;;;5.58;51.60;101950.34;2570225;23;20144;-65
2022/04/12 03:11:40;;;;;;;5.60;3.70;;;;;;;5.43;51.21;101932.06;2570075;23;20178;-65
2022/04/12 03:12:40;;;;;;;8.80;4.10;;;;;;;5.42;51.27;101931.25;2570214;23;20156;-64
2022/04/12 03:13:41;;;;;;;5.53;3.77;;;;;;;5.56;51.31;101956.25;2570011;23;20155;-65
2022/04/12 03:14:41;;;;;;;6.47;3.90;;;;;;;5.56;51.00;101949.94;2570192;23;20145;-64
2022/04/12 03:15:42;;;;;;;7.93;3.77;;;;;;;5.55;51.22;101951.88;2570225;23;20150;-64
2022/04/12 03:16:43;;;;;;;7.80;4.17;;;;;;;5.55;50.97;101954.63;2570025;23;20147;-65
2022/04/12 03:17:43;;;;;;;7.87;4.80;;;;;;;4.71;50.75;101826.69;2570207;23;20619;-65
2022/04/12 03:18:44;;;;;;;8.67;4.10;;;;;;;5.37;50.84;101958.22;2570229;23;20201;-65
2022/04/12 03:19:44;;;;;;;6.80;4.07;;;;;;;5.39;51.33;101959.47;2570397;23;20149;-64
2022/04/12 03:20:45;;;;;;;7.97;4.70;;;;;;;5.37;51.27;101950.78;2570955;23;20146;-64
2022/04/12 03:21:46;;;;;;;8.40;4.80;;;;;;;5.26;50.97;101943.50;2570806;23;20596;-64
2022/04/12 03:22:46;;;;;;;9.43;5.40;;;;;;;5.51;50.58;101953.00;2571100;23;20146;-64
2022/04/12 03:23:47;;;;;;;8.37;5.20;;;;;;;5.55;50.34;101959.38;2570864;23;20146;-65
2022/04/12 03:24:47;;;;;;;7.80;4.07;;;;;;;5.55;50.52;101962.88;2571010;23;20156;-65
2022/04/12 03:25:50;;;;;;;7.00;4.40;;;;;;;5.58;51.41;101955.84;2571051;23;20161;-64
2022/04/12 03:26:50;;;;;;;6.45;4.43;;;;;;;5.61;50.73;101960.63;2570836;23;20159;-65
2022/04/12 03:27:51;;;;;;;6.20;4.03;;;;;;;5.63;51.77;101955.56;2570884;23;20159;-64
2022/04/12 03:28:51;;;;;;;7.50;5.10;;;;;;;4.60;51.24;101790.00;2557670;23;20594;-64
2022/04/12 03:29:52;;;;;;;6.47;4.20;;;;;;;5.68;51.49;101964.31;2557861;23;20152;-65
2022/04/12 03:30:52;;;;;;;8.10;5.50;;;;;;;5.69;50.82;101957.63;2557601;23;20196;-65
2022/04/12 03:31:53;;;;;;;6.27;4.13;;;;;;;5.70;51.20;101961.19;2557735;23;20245;-65
2022/04/12 03:32:54;;;;;;;10.70;6.10;;;;;;;5.67;50.06;101954.47;2570914;23;20155;-64
2022/04/12 03:33:54;;;;;;;10.47;5.13;;;;;;;5.68;50.78;101961.56;2570963;23;20149;-65
2022/04/12 03:34:55;;;;;;;7.17;4.83;;;;;;;5.68;50.42;101986.31;2571010;23;20149;-64
2022/04/12 03:35:55;;;;;;;8.77;5.30;;;;;;;5.70;50.51;101952.94;2571073;23;20187;-64
2022/04/12 03:36:56;;;;;;;7.67;4.17;;;;;;;5.70;51.48;101948.22;2570761;23;20606;-65
2022/04/12 03:38:00;;;;;;;6.30;4.23;;;;;;;5.70;51.23;101956.47;2571030;23;20151;-65
2022/04/12 03:39:04;;;;;;;9.05;4.60;;;;;;;5.70;51.19;101958.44;2570977;23;20231;-65
2022/04/12 03:40:06;;;;;;;8.23;4.50;;;;;;;5.71;51.78;101958.09;2570927;23;20155;-65
2022/04/12 03:41:06;;;;;;;10.60;5.15;;;;;;;5.73;51.46;101955.75;2570770;23;20180;-64
2022/04/12 03:42:11;;;;;;;5.87;4.13;;;;;;;5.73;50.82;101961.25;2570824;23;20519;-64
2022/04/12 03:43:11;;;;;;;6.72;4.18;;;;;;;5.68;50.30;101955.25;2570869;23;20187;-64
2022/04/12 03:44:13;;;;;;;14.90;5.70;;;;;;;5.69;50.47;101957.63;2570924;23;20159;-64
2022/04/12 03:45:13;;;;;;;7.55;4.35;;;;;;;5.70;50.57;101950.19;2557416;23;20266;-64
2022/04/12 03:46:14;;;;;;;5.47;3.53;;;;;;;5.32;50.43;101917.31;2557629;23;20191;-65
2022/04/12 03:47:14;;;;;;;9.60;4.07;;;;;;;5.69;50.54;101957.63;2570966;23;20156;-64
2022/04/12 03:48:15;;;;;;;8.77;4.77;;;;;;;5.68;50.12;101961.56;2570950;23;20152;-64
2022/04/12 03:49:15;;;;;;;8.90;4.07;;;;;;;5.25;50.20;101901.50;2571065;23;20549;-64
2022/04/12 03:50:16;;;;;;;12.30;5.47;;;;;;;5.68;50.71;101958.81;2570974;23;20499;-64
2022/04/12 03:51:16;;;;;;;7.17;3.80;;;;;;;5.59;50.64;101955.50;2570793;23;20152;-64
2022/04/12 03:52:17;;;;;;;15.87;5.53;;;;;;;5.63;51.48;101958.31;2570860;23;20231;-64
2022/04/12 03:53:18;;;;;;;12.20;3.75;;;;;;;5.65;50.74;101950.50;2570908;23;20671;-64
2022/04/12 03:54:18;;;;;;;7.73;3.70;;;;;;;5.66;51.11;101952.09;2571045;23;20550;-65
2022/04/12 03:55:46;;;;;;;21.80;6.33;;;;;;;5.67;50.46;101953.66;2570883;23;20504;-64
2022/04/12 03:56:42;;;;;;;15.20;4.97;;;;;;;5.02;50.32;101880.66;2570031;23;20160;-64
2022/04/12 03:57:43;;;;;;;9.88;4.10;;;;;;;5.70;49.71;101958.44;2570859;23;20179;-64
2022/04/12 03:58:43;;;;;;;9.20;4.43;;;;;;;5.70;50.71;101956.47;2570812;23;20158;-64
2022/04/12 03:59:44;;;;;;;7.37;3.70;;;;;;;5.69;50.49;101959.63;2570887;23;20171;-65
2022/04/12 04:00:45;;;;;;;8.07;3.90;;;;;;;4.82;50.02;101835.16;2570859;23;20660;-64
2022/04/12 04:01:46;;;;;;;10.13;4.10;;;;;;;5.68;50.39;101958.00;2570704;23;20164;-65
2022/04/12 04:02:47;;;;;;;9.50;4.65;;;;;;;5.66;49.98;101961.16;2570778;23;20155;-64
2022/04/12 04:03:47;;;;;;;8.47;4.00;;;;;;;5.65;50.19;101961.50;2570757;23;20176;-64
2022/04/12 04:04:48;;;;;;;8.70;4.07;;;;;;;5.68;50.79;101963.50;2570900;23;20202;-65
2022/04/12 04:05:48;;;;;;;16.03;4.77;;;;;;;5.68;50.79;101958.00;2570673;23;20164;-64
2022/04/12 04:06:49;;;;;;;6.60;3.53;;;;;;;5.66;50.69;101960.34;2570905;23;20546;-64
2022/04/12 04:07:49;;;;;;;13.00;5.33;;;;;;;4.84;50.35;101830.88;2570776;23;20152;-64
2022/04/12 04:08:50;;;;;;;7.60;4.13;;;;;;;4.57;50.23;101798.19;2570847;23;20765;-64
2022/04/12 04:09:50;;;;;;;8.80;4.03;;;;;;;5.17;50.75;101896.22;2570753;23;20197;-64
2022/04/12 04:10:51;;;;;;;10.40;4.60;;;;;;;5.64;51.65;101965.41;2570756;23;20151;-64
2022/04/12 04:11:52;;;;;;;9.57;4.20;;;;;;;5.65;52.45;101967.78;2570798;23;20156;-64
2022/04/12 04:12:53;;;;;;;9.37;3.80;;;;;;;5.27;51.68;101909.34;2570687;23;20230;-64
2022/04/12 04:13:54;;;;;;;8.25;3.97;;;;;;;5.40;52.91;101921.78;2570775;23;20498;-64
2022/04/12 04:14:55;;;;;;;9.87;4.60;;;;;;;5.74;52.98;101968.34;2570803;23;20179;-65
2022/04/12 04:15:57;;;;;;;6.68;3.80;;;;;;;5.24;52.63;101890.88;2570897;23;20157;-65
2022/04/12 04:17:00;;;;;;;6.32;3.65;;;;;;;5.61;51.68;101944.13;2570199;23;20183;-65
2022/04/12 04:18:01;;;;;;;5.75;3.72;;;;;;;5.82;51.72;101975.59;2569925;23;20159;-65
2022/04/12 04:19:02;;;;;;;9.63;4.32;;;;;;;5.88;53.62;101974.13;2570504;23;20159;-65
2022/04/12 04:20:04;;;;;;;6.70;3.77;;;;;;;5.90;51.58;101977.28;2570552;23;20156;-65
2022/04/12 04:21:04;;;;;;;7.15;4.30;;;;;;;5.94;51.57;101977.38;2570432;23;20178;-65
2022/04/12 04:22:05;;;;;;;8.77;4.10;;;;;;;5.97;51.26;101980.16;2570566;23;20155;-65
2022/04/12 04:23:06;;;;;;;5.43;4.00;;;;;;;5.99;50.42;101980.59;2570479;23;20256;-65
2022/04/12 04:24:06;;;;;;;7.40;3.87;;;;;;;6.03;49.84;101980.63;2569574;23;20156;-65
2022/04/12 04:25:13;;;;;;;5.70;3.60;;;;;;;4.85;50.50;101791.25;2569584;23;20595;-65
2022/04/12 04:26:13;;;;;;;6.72;3.70;;;;;;;6.07;50.23;101996.06;2569965;23;20524;-65
2022/04/12 04:27:14;;;;;;;7.13;3.90;;;;;;;6.11;50.55;101980.38;2570177;23;20153;-65
2022/04/12 04:28:21;;;;;;;10.13;4.15;;;;;;;6.16;50.43;101982.03;2569962;23;20636;-65
2022/04/12 04:29:23;;;;;;;8.93;4.05;;;;;;;6.20;50.55;101983.66;2570372;23;20156;-65
2022/04/12 04:30:24;;;;;;;7.07;4.10;;;;;;;6.25;50.84;101977.84;2570422;23;20492;-65
2022/04/12 04:31:25;;;;;;;6.90;4.13;;;;;;;6.26;51.37;101982.19;2570111;23;20208;-65
2022/04/12 04:32:25;;;;;;;8.77;3.67;;;;;;;6.29;51.90;101980.66;2569738;23;20172;-65
2022/04/12 04:33:26;;;;;;;7.90;4.47;;;;;;;5.99;51.16;101950.31;2568429;23;20152;-65
2022/04/12 04:34:27;;;;;;;9.30;4.50;;;;;;;5.71;51.00;101907.78;2569381;23;20629;-65
2022/04/12 04:35:27;;;;;;;7.83;4.60;;;;;;;6.19;51.06;101960.06;2569587;23;20160;-65
2022/04/12 04:36:28;;;;;;;7.40;4.87;;;;;;;6.31;51.35;101975.59;2569428;23;20170;-64
2022/04/12 04:37:28;;;;;;;8.40;4.93;;;;;;;6.41;51.25;101986.72;2555617;23;20699;-65
2022/04/12 04:38:29;;;;;;;8.23;4.17;;;;;;;5.37;51.47;101818.03;2556111;23;20156;-64
2022/04/12 04:39:29;;;;;;;8.00;5.00;;;;;;;6.46;52.45;101991.16;2569240;23;20152;-65
2022/04/12 04:40:30;;;;;;;7.63;4.83;;;;;;;6.30;53.76;101982.25;2556667;23;20195;-64
2022/04/12 04:41:31;;;;;;;6.90;4.37;;;;;;;6.39;53.46;101991.84;2556429;23;20475;-65
2022/04/12 04:42:33;;;;;;;8.73;4.60;;;;;;;6.42;54.02;101988.31;2569748;23;20516;-65
2022/04/12 04:43:34;;;;;;;8.25;4.20;;;;;;;6.50;53.96;101992.78;2569537;23;20202;-65
2022/04/12 04:44:34;;;;;;;8.13;4.57;;;;;;;6.36;53.92;101981.53;2569698;23;20152;-65
2022/04/12 04:45:35;;;;;;;9.33;5.20;;;;;;;6.59;53.92;101992.50;2567716;23;20227;-65
2022/04/12 04:46:36;;;;;;;7.80;4.38;;;;;;;6.64;53.14;102000.44;2568988;23;20254;-65
2022/04/12 04:47:56;;;;;;;14.97;8.70;;;;;;;6.68;53.13;101988.31;2568765;23;20156;-64
2022/04/12 04:48:57;;;;;;;23.30;14.40;;;;;;;6.71;52.92;101993.06;2569090;23;20148;-65
2022/04/12 04:49:57;;;;;;;27.03;18.07;;;;;;;6.75;52.53;101996.66;2565380;23;20152;-65
2022/04/12 04:50:58;;;;;;;27.87;17.97;;;;;;;6.66;52.54;101984.34;2552695;23;20163;-65